createdAt,value
2018-08-04T00:00:29.858Z,18.95
2018-08-04T00:01:29.803Z,18.90
2018-08-04T00:02:29.772Z,18.98
2018-08-04T00:03:29.758Z,18.90
2018-08-04T00:04:29.722Z,19.00
2018-08-04T00:05:29.690Z,19.14
2018-08-04T00:06:30.762Z,19.25
2018-08-04T00:07:29.616Z,19.00
2018-08-04T00:08:29.593Z,19.08
2018-08-04T00:09:29.550Z,19.00
2018-08-04T00:10:29.522Z,18.92
2018-08-04T00:11:29.503Z,19.07
2018-08-04T00:12:29.482Z,19.00
2018-08-04T00:13:29.441Z,18.92
2018-08-04T00:14:29.467Z,18.99
2018-08-04T00:15:29.389Z,18.84
2018-08-04T00:16:29.349Z,18.80
2018-08-04T00:17:29.402Z,18.80
2018-08-04T00:18:29.308Z,18.88
2018-08-04T00:19:29.233Z,18.75
2018-08-04T00:20:29.215Z,18.73
2018-08-04T00:21:29.175Z,18.65
2018-08-04T00:22:29.144Z,18.57
2018-08-04T00:23:29.137Z,18.63
2018-08-04T00:24:29.093Z,18.60
2018-08-04T00:25:29.053Z,18.60
2018-08-04T00:26:29.041Z,18.66
2018-08-04T00:27:29.007Z,18.62
2018-08-04T00:28:29.009Z,18.67
2018-08-04T00:29:28.938Z,18.57
2018-08-04T00:30:28.902Z,18.63
2018-08-04T00:31:28.904Z,18.62
2018-08-04T00:32:28.893Z,18.62
2018-08-04T00:33:28.804Z,18.72
2018-08-04T00:34:28.798Z,18.60
2018-08-04T00:35:28.730Z,18.58
2018-08-04T00:36:28.700Z,18.58
2018-08-04T00:37:28.720Z,18.62
2018-08-04T00:38:28.638Z,18.60
2018-08-04T00:39:28.612Z,18.60
2018-08-04T00:40:28.567Z,18.62
2018-08-04T00:41:28.534Z,18.73
2018-08-04T00:42:28.512Z,18.62
2018-08-04T00:43:28.477Z,18.65
2018-08-04T00:44:28.450Z,18.58
2018-08-04T00:45:28.457Z,18.54
2018-08-04T00:46:28.387Z,18.58
2018-08-04T00:47:28.357Z,18.63
2018-08-04T00:48:28.358Z,18.65
2018-08-04T00:49:28.299Z,18.60
2018-08-04T00:50:28.261Z,18.63
2018-08-04T00:51:28.223Z,18.50
2018-08-04T00:52:28.187Z,18.63
2018-08-04T00:53:28.187Z,18.62
2018-08-04T00:54:28.121Z,18.63
2018-08-04T00:55:28.097Z,18.62
2018-08-04T00:56:28.086Z,18.65
2018-08-04T00:57:28.044Z,18.54
2018-08-04T00:58:28.037Z,18.60
2018-08-04T00:59:27.961Z,18.47
2018-08-04T01:00:27.933Z,18.50
2018-08-04T01:01:27.916Z,18.54
2018-08-04T01:02:27.871Z,18.57
2018-08-04T01:03:27.843Z,18.55
2018-08-04T01:04:27.863Z,18.41
2018-08-04T01:05:27.786Z,18.42
2018-08-04T01:06:27.766Z,18.48
2018-08-04T01:07:27.736Z,18.42
2018-08-04T01:08:27.685Z,18.41
2018-08-04T01:09:27.651Z,18.45
2018-08-04T01:10:27.615Z,18.41
2018-08-04T01:11:27.588Z,18.41
2018-08-04T01:12:27.562Z,18.41
2018-08-04T01:13:27.514Z,18.51
2018-08-04T01:14:27.508Z,18.48
2018-08-04T01:15:27.469Z,18.51
2018-08-04T01:16:27.419Z,18.44
2018-08-04T01:17:27.399Z,18.37
2018-08-04T01:18:27.360Z,18.41
2018-08-04T01:19:27.350Z,18.36
2018-08-04T01:20:27.299Z,18.32
2018-08-04T01:21:27.274Z,18.29
2018-08-04T01:22:27.245Z,18.26
2018-08-04T01:23:27.194Z,18.27
2018-08-04T01:24:27.198Z,18.35
2018-08-04T01:25:27.152Z,18.23
2018-08-04T01:26:27.194Z,18.36
2018-08-04T01:27:27.083Z,18.41
2018-08-04T01:28:27.052Z,18.36
2018-08-04T01:29:27.036Z,18.37
2018-08-04T01:30:26.996Z,18.25
2018-08-04T01:31:26.959Z,18.29
2018-08-04T01:32:26.947Z,18.29
2018-08-04T01:33:26.880Z,18.32
2018-08-04T01:34:26.845Z,18.32
2018-08-04T01:35:26.822Z,18.27
2018-08-04T01:36:26.798Z,18.41
2018-08-04T01:37:26.756Z,18.50
2018-08-04T01:38:26.716Z,18.55
2018-08-04T01:39:26.683Z,18.62
2018-08-04T01:40:26.656Z,18.58
2018-08-04T01:41:26.631Z,18.58
2018-08-04T01:42:26.608Z,18.58
2018-08-04T01:43:26.568Z,18.62
2018-08-04T01:44:26.526Z,18.52
2018-08-04T01:45:26.506Z,18.50
2018-08-04T01:46:26.477Z,18.47
2018-08-04T01:47:26.429Z,18.42
2018-08-04T01:48:26.406Z,18.42
2018-08-04T01:49:26.365Z,18.41
2018-08-04T01:50:26.336Z,18.47
2018-08-04T01:51:26.320Z,18.35
2018-08-04T01:52:26.270Z,18.32
2018-08-04T01:53:26.241Z,18.35
2018-08-04T01:54:26.200Z,18.32
2018-08-04T01:55:26.169Z,18.26
2018-08-04T01:56:26.146Z,18.25
2018-08-04T01:57:26.118Z,18.27
2018-08-04T01:58:26.080Z,18.11
2018-08-04T01:59:26.043Z,18.07
2018-08-04T02:00:26.023Z,18.05
2018-08-04T02:01:26.086Z,18.07
2018-08-04T02:02:25.949Z,18.02
2018-08-04T02:03:25.943Z,18.07
2018-08-04T02:04:25.896Z,18.05
2018-08-04T02:05:25.860Z,18.03
2018-08-04T02:06:25.816Z,18.11
2018-08-04T02:07:25.808Z,18.14
2018-08-04T02:08:25.759Z,18.20
2018-08-04T02:09:25.721Z,18.18
2018-08-04T02:10:25.727Z,18.12
2018-08-04T02:11:25.673Z,18.26
2018-08-04T02:12:25.639Z,18.25
2018-08-04T02:13:25.586Z,18.21
2018-08-04T02:14:25.566Z,18.14
2018-08-04T02:15:25.559Z,18.17
2018-08-04T02:16:25.502Z,18.05
2018-08-04T02:17:25.477Z,18.02
2018-08-04T02:18:25.442Z,18.02
2018-08-04T02:19:25.417Z,18.08
2018-08-04T02:20:25.372Z,18.12
2018-08-04T02:21:25.358Z,18.12
2018-08-04T02:22:25.310Z,18.25
2018-08-04T02:23:25.274Z,18.21
2018-08-04T02:24:25.256Z,18.18
2018-08-04T02:25:25.211Z,18.12
2018-08-04T02:26:25.180Z,18.08
2018-08-04T02:27:25.146Z,18.15
2018-08-04T02:28:25.119Z,18.14
2018-08-04T02:29:25.076Z,18.05
2018-08-04T02:30:25.086Z,18.05
2018-08-04T02:31:25.033Z,18.10
2018-08-04T02:32:24.986Z,18.10
2018-08-04T02:33:24.950Z,18.11
2018-08-04T02:34:24.923Z,18.02
2018-08-04T02:35:24.882Z,18.00
2018-08-04T02:36:24.863Z,18.08
2018-08-04T02:37:24.829Z,18.00
2018-08-04T02:38:24.795Z,18.05
2018-08-04T02:39:24.757Z,18.05
2018-08-04T02:40:24.732Z,18.03
2018-08-04T02:41:24.707Z,17.97
2018-08-04T02:42:24.658Z,18.03
2018-08-04T02:43:24.630Z,18.02
2018-08-04T02:44:24.590Z,18.18
2018-08-04T02:45:24.559Z,18.10
2018-08-04T02:46:24.529Z,18.18
2018-08-04T02:47:24.527Z,18.15
2018-08-04T02:48:24.458Z,18.26
2018-08-04T02:49:24.428Z,18.29
2018-08-04T02:50:24.414Z,18.30
2018-08-04T02:51:24.362Z,18.37
2018-08-04T02:52:24.340Z,18.36
2018-08-04T02:53:24.296Z,18.27
2018-08-04T02:54:24.270Z,18.32
2018-08-04T02:55:24.230Z,18.33
2018-08-04T02:56:24.208Z,18.27
2018-08-04T02:57:24.179Z,18.29
2018-08-04T02:58:24.142Z,18.30
2018-08-04T02:59:24.113Z,18.33
2018-08-04T03:00:24.074Z,18.32
2018-08-04T03:01:24.045Z,18.33
2018-08-04T03:02:24.018Z,18.41
2018-08-04T03:03:24.030Z,18.37
2018-08-04T03:04:23.945Z,18.42
2018-08-04T03:05:23.953Z,18.37
2018-08-04T03:06:24.061Z,18.47
2018-08-04T03:07:23.889Z,18.44
2018-08-04T03:08:23.842Z,18.47
2018-08-04T03:09:23.799Z,18.44
2018-08-04T03:10:23.823Z,18.45
2018-08-04T03:11:23.746Z,18.42
2018-08-04T03:12:23.754Z,18.44
2018-08-04T03:13:23.700Z,18.50
2018-08-04T03:14:23.724Z,18.45
2018-08-04T03:15:23.593Z,18.39
2018-08-04T03:16:23.564Z,18.48
2018-08-04T03:17:23.576Z,18.52
2018-08-04T03:18:23.521Z,18.50
2018-08-04T03:19:23.577Z,18.55
2018-08-04T03:20:23.434Z,18.54
2018-08-04T03:21:23.478Z,18.51
2018-08-04T03:22:23.355Z,18.54
2018-08-04T03:23:23.355Z,18.57
2018-08-04T03:24:23.320Z,18.57
2018-08-04T03:25:23.272Z,18.60
2018-08-04T03:26:23.244Z,18.58
2018-08-04T03:27:23.209Z,18.66
2018-08-04T03:28:23.175Z,18.62
2018-08-04T03:29:23.136Z,18.73
2018-08-04T03:30:23.107Z,18.72
2018-08-04T03:31:23.083Z,18.75
2018-08-04T03:32:23.047Z,18.58
2018-08-04T03:33:23.010Z,18.55
2018-08-04T03:34:22.993Z,18.58
2018-08-04T03:35:22.972Z,18.62
2018-08-04T03:36:22.931Z,18.65
2018-08-04T03:37:22.893Z,18.63
2018-08-04T03:38:22.867Z,18.65
2018-08-04T03:39:22.814Z,18.60
2018-08-04T03:40:22.808Z,18.51
2018-08-04T03:41:22.835Z,18.54
2018-08-04T03:42:22.742Z,18.51
2018-08-04T03:43:22.697Z,18.47
2018-08-04T03:44:22.660Z,18.44
2018-08-04T03:45:22.646Z,18.36
2018-08-04T03:46:22.604Z,18.51
2018-08-04T03:47:22.593Z,18.42
2018-08-04T03:48:22.543Z,18.47
2018-08-04T03:49:22.495Z,18.48
2018-08-04T03:50:22.463Z,18.42
2018-08-04T03:51:22.437Z,18.54
2018-08-04T03:52:22.392Z,18.39
2018-08-04T03:53:22.368Z,18.44
2018-08-04T03:54:22.350Z,18.42
2018-08-04T03:55:22.306Z,18.44
2018-08-04T03:56:22.265Z,18.45
2018-08-04T03:57:22.240Z,18.47
2018-08-04T03:58:22.208Z,18.50
2018-08-04T03:59:22.177Z,18.55
2018-08-04T04:00:22.141Z,18.60
2018-08-04T04:01:22.119Z,18.63
2018-08-04T04:02:22.087Z,18.57
2018-08-04T04:03:22.056Z,18.62
2018-08-04T04:04:22.014Z,18.60
2018-08-04T04:05:21.988Z,18.65
2018-08-04T04:06:21.946Z,18.63
2018-08-04T04:07:21.924Z,18.58
2018-08-04T04:08:21.890Z,18.55
2018-08-04T04:09:21.871Z,18.54
2018-08-04T04:10:21.833Z,18.73
2018-08-04T04:11:21.812Z,18.73
2018-08-04T04:12:21.746Z,18.75
2018-08-04T04:13:21.728Z,18.72
2018-08-04T04:14:21.684Z,18.78
2018-08-04T04:15:21.664Z,18.85
2018-08-04T04:16:21.643Z,18.87
2018-08-04T04:17:21.593Z,18.87
2018-08-04T04:18:21.572Z,18.87
2018-08-04T04:19:21.546Z,18.85
2018-08-04T04:20:21.507Z,19.00
2018-08-04T04:21:21.503Z,18.94
2018-08-04T04:22:21.475Z,18.98
2018-08-04T04:23:21.408Z,19.06
2018-08-04T04:24:21.411Z,19.10
2018-08-04T04:25:21.471Z,19.16
2018-08-04T04:26:21.347Z,19.22
2018-08-04T04:27:21.348Z,19.29
2018-08-04T04:28:21.249Z,19.36
2018-08-04T04:29:21.232Z,19.46
2018-08-04T04:30:21.197Z,19.59
2018-08-04T04:31:21.187Z,19.59
2018-08-04T04:32:21.129Z,19.63
2018-08-04T04:33:21.084Z,19.80
2018-08-04T04:34:21.089Z,19.94
2018-08-04T04:35:21.030Z,19.99
2018-08-04T04:36:20.988Z,20.14
2018-08-04T04:37:20.968Z,20.21
2018-08-04T04:38:20.945Z,20.31
2018-08-04T04:39:20.908Z,20.36
2018-08-04T04:40:20.969Z,20.55
2018-08-04T04:41:20.874Z,20.51
2018-08-04T04:42:20.873Z,20.58
2018-08-04T04:43:20.787Z,20.61
2018-08-04T04:44:20.747Z,20.82
2018-08-04T04:45:20.767Z,20.91
2018-08-04T04:46:20.748Z,20.79
2018-08-04T04:47:20.654Z,20.84
2018-08-04T04:48:20.651Z,20.94
2018-08-04T04:49:20.654Z,20.97
2018-08-04T04:50:20.649Z,20.95
2018-08-04T04:51:20.530Z,21.10
2018-08-04T04:52:20.523Z,21.01
2018-08-04T04:53:20.497Z,21.09
2018-08-04T04:54:20.472Z,21.14
2018-08-04T04:55:20.457Z,21.21
2018-08-04T04:56:20.415Z,21.19
2018-08-04T04:57:20.369Z,21.32
2018-08-04T04:58:20.319Z,21.31
2018-08-04T04:59:20.295Z,21.37
2018-08-04T05:00:23.044Z,21.42
2018-08-04T05:01:20.231Z,21.46
2018-08-04T05:02:20.193Z,21.46
2018-08-04T05:03:20.163Z,21.47
2018-08-04T05:04:20.120Z,21.50
2018-08-04T05:05:20.102Z,21.53
2018-08-04T05:06:20.062Z,21.49
2018-08-04T05:07:20.064Z,21.61
2018-08-04T05:08:20.015Z,21.59
2018-08-04T05:09:20.058Z,21.68
2018-08-04T05:10:19.969Z,21.71
2018-08-04T05:11:19.923Z,21.77
2018-08-04T05:12:19.884Z,21.91
2018-08-04T05:13:19.931Z,21.92
2018-08-04T05:14:19.825Z,22.05
2018-08-04T05:15:19.792Z,22.10
2018-08-04T05:16:19.779Z,22.24
2018-08-04T05:17:19.732Z,22.30
2018-08-04T05:18:19.696Z,22.21
2018-08-04T05:19:19.693Z,22.27
2018-08-04T05:20:19.658Z,22.36
2018-08-04T05:21:19.665Z,22.37
2018-08-04T05:22:19.596Z,22.45
2018-08-04T05:23:19.564Z,22.52
2018-08-04T05:24:19.537Z,22.57
2018-08-04T05:25:19.562Z,22.61
2018-08-04T05:26:19.476Z,22.72
2018-08-04T05:27:19.447Z,22.67
2018-08-04T05:28:19.405Z,22.61
2018-08-04T05:29:19.381Z,22.64
2018-08-04T05:30:19.357Z,22.51
2018-08-04T05:31:19.326Z,22.37
2018-08-04T05:32:19.310Z,22.30
2018-08-04T05:33:19.274Z,22.35
2018-08-04T05:34:19.243Z,22.33
2018-08-04T05:35:19.190Z,22.28
2018-08-04T05:36:19.173Z,22.06
2018-08-04T05:37:19.191Z,21.84
2018-08-04T05:38:19.111Z,21.75
2018-08-04T05:39:19.093Z,21.82
2018-08-04T05:40:19.058Z,21.75
2018-08-04T05:41:19.031Z,21.86
2018-08-04T05:42:18.991Z,21.92
2018-08-04T05:43:19.036Z,21.83
2018-08-04T05:44:18.934Z,21.79
2018-08-04T05:45:18.928Z,21.69
2018-08-04T05:46:18.877Z,21.61
2018-08-04T05:47:18.855Z,21.61
2018-08-04T05:48:18.822Z,21.80
2018-08-04T05:49:18.785Z,21.80
2018-08-04T05:50:18.768Z,21.94
2018-08-04T05:51:18.758Z,22.02
2018-08-04T05:52:18.697Z,22.07
2018-08-04T05:53:18.697Z,22.07
2018-08-04T05:54:18.649Z,22.18
2018-08-04T05:55:18.610Z,22.07
2018-08-04T05:56:18.601Z,22.10
2018-08-04T05:57:18.555Z,22.24
2018-08-04T05:58:18.523Z,22.28
2018-08-04T05:59:18.512Z,22.43
2018-08-04T06:00:18.531Z,22.46
2018-08-04T06:01:18.473Z,22.65
2018-08-04T06:02:18.417Z,22.73
2018-08-04T06:03:18.404Z,22.92
2018-08-04T06:04:18.357Z,23.15
2018-08-04T06:05:18.325Z,23.22
2018-08-04T06:06:18.311Z,23.20
2018-08-04T06:07:18.268Z,23.35
2018-08-04T06:08:18.247Z,23.23
2018-08-04T06:09:18.192Z,23.22
2018-08-04T06:10:18.173Z,23.42
2018-08-04T06:11:18.129Z,23.32
2018-08-04T06:12:18.107Z,23.48
2018-08-04T06:13:18.108Z,23.53
2018-08-04T06:14:18.044Z,23.58
2018-08-04T06:15:18.019Z,23.72
2018-08-04T06:16:18.020Z,23.78
2018-08-04T06:17:17.961Z,23.93
2018-08-04T06:18:17.940Z,23.87
2018-08-04T06:19:17.908Z,23.97
2018-08-04T06:20:17.877Z,24.03
2018-08-04T06:21:17.854Z,24.05
2018-08-04T06:22:17.831Z,24.03
2018-08-04T06:23:17.806Z,24.05
2018-08-04T06:24:17.762Z,24.20
2018-08-04T06:25:17.742Z,24.37
2018-08-04T06:26:17.698Z,24.46
2018-08-04T06:27:17.695Z,24.40
2018-08-04T06:28:17.677Z,24.58
2018-08-04T06:29:17.619Z,24.52
2018-08-04T06:30:17.590Z,24.50
2018-08-04T06:31:17.577Z,24.49
2018-08-04T06:32:17.559Z,24.53
2018-08-04T06:33:17.527Z,24.67
2018-08-04T06:34:17.492Z,24.67
2018-08-04T06:35:17.449Z,24.73
2018-08-04T06:36:17.490Z,24.87
2018-08-04T06:37:17.399Z,24.88
2018-08-04T06:38:17.414Z,25.02
2018-08-04T06:39:17.352Z,25.15
2018-08-04T06:40:17.327Z,25.17
2018-08-04T06:41:17.285Z,25.38
2018-08-04T06:42:17.266Z,25.47
2018-08-04T06:43:17.246Z,25.72
2018-08-04T06:44:17.248Z,25.87
2018-08-04T06:45:17.178Z,26.02
2018-08-04T06:46:17.161Z,26.20
2018-08-04T06:47:17.127Z,26.32
2018-08-04T06:48:17.118Z,26.44
2018-08-04T06:49:17.073Z,26.48
2018-08-04T06:50:17.042Z,26.40
2018-08-04T06:51:17.022Z,26.48
2018-08-04T06:52:16.987Z,26.47
2018-08-04T06:53:16.959Z,26.48
2018-08-04T06:54:16.940Z,26.45
2018-08-04T06:55:16.918Z,26.60
2018-08-04T06:56:16.878Z,27.21
2018-08-04T06:57:16.856Z,27.74
2018-08-04T06:58:16.873Z,27.78
2018-08-04T06:59:16.795Z,28.02
2018-08-04T07:00:16.772Z,28.41
2018-08-04T07:01:16.746Z,29.16
2018-08-04T07:02:16.713Z,30.02
2018-08-04T07:03:16.693Z,30.69
2018-08-04T07:04:16.699Z,31.13
2018-08-04T07:05:16.697Z,31.29
2018-08-04T07:06:16.641Z,30.92
2018-08-04T07:07:16.625Z,30.53
2018-08-04T07:08:16.567Z,30.16
2018-08-04T07:09:16.540Z,29.86
2018-08-04T07:10:16.540Z,29.46
2018-08-04T07:11:16.510Z,29.12
2018-08-04T07:12:16.490Z,29.89
2018-08-04T07:13:16.471Z,30.07
2018-08-04T07:14:16.453Z,30.26
2018-08-04T07:15:16.410Z,30.19
2018-08-04T07:16:16.391Z,30.65
2018-08-04T07:17:16.361Z,30.76
2018-08-04T07:18:16.337Z,30.47
2018-08-04T07:19:16.311Z,30.88
2018-08-04T07:20:16.286Z,31.46
2018-08-04T07:21:16.278Z,31.92
2018-08-04T07:22:16.229Z,32.33
2018-08-04T07:23:16.256Z,32.44
2018-08-04T07:24:16.195Z,32.50
2018-08-04T07:25:16.182Z,32.82
2018-08-04T07:26:16.143Z,32.93
2018-08-04T07:27:16.128Z,33.50
2018-08-04T07:28:16.130Z,34.12
2018-08-04T07:29:16.126Z,34.08
2018-08-04T07:30:16.067Z,34.16
2018-08-04T07:31:16.077Z,34.30
2018-08-04T07:32:16.015Z,34.54
2018-08-04T07:33:15.992Z,34.25
2018-08-04T07:34:16.041Z,34.59
2018-08-04T07:35:15.962Z,34.91
2018-08-04T07:36:15.934Z,34.92
2018-08-04T07:37:15.918Z,34.97
2018-08-04T07:38:15.904Z,35.00
2018-08-04T07:39:15.881Z,34.21
2018-08-04T07:40:15.859Z,33.32
2018-08-04T07:41:15.831Z,32.48
2018-08-04T07:42:15.847Z,32.14
2018-08-04T07:43:15.810Z,31.89
2018-08-04T07:44:15.780Z,31.48
2018-08-04T07:45:15.764Z,31.17
2018-08-04T07:46:15.776Z,31.12
2018-08-04T07:47:15.728Z,30.84
2018-08-04T07:48:15.700Z,30.83
2018-08-04T07:49:15.716Z,30.58
2018-08-04T07:50:15.682Z,30.58
2018-08-04T07:51:15.644Z,30.04
2018-08-04T07:52:15.621Z,29.64
2018-08-04T07:53:15.626Z,29.73
2018-08-04T07:54:15.611Z,29.78
2018-08-04T07:55:15.597Z,29.48
2018-08-04T07:56:15.542Z,29.41
2018-08-04T07:57:15.554Z,29.51
2018-08-04T07:58:15.504Z,29.41
2018-08-04T07:59:15.489Z,29.89
2018-08-04T08:00:15.466Z,30.73
2018-08-04T08:01:15.466Z,31.56
2018-08-04T08:02:15.426Z,32.67
2018-08-04T08:03:15.391Z,33.54
2018-08-04T08:04:15.378Z,33.98
2018-08-04T08:05:15.360Z,34.64
2018-08-04T08:06:15.347Z,34.81
2018-08-04T08:07:15.311Z,34.89
2018-08-04T08:08:15.312Z,35.02
2018-08-04T08:09:15.265Z,35.25
2018-08-04T08:10:15.274Z,35.43
2018-08-04T08:11:15.318Z,35.82
2018-08-04T08:12:15.206Z,36.17
2018-08-04T08:13:15.333Z,36.56
2018-08-04T08:14:15.366Z,36.64
2018-08-04T08:15:15.444Z,36.32
2018-08-04T08:16:15.136Z,36.49
2018-08-04T08:17:15.132Z,36.60
2018-08-04T08:18:15.102Z,36.81
2018-08-04T08:19:15.089Z,36.98
2018-08-04T08:20:15.054Z,37.00
2018-08-04T08:21:15.061Z,37.10
2018-08-04T08:22:15.035Z,36.73
2018-08-04T08:23:15.074Z,36.80
2018-08-04T08:24:15.007Z,36.88
2018-08-04T08:25:14.967Z,37.37
2018-08-04T08:26:15.001Z,37.62
2018-08-04T08:27:14.935Z,37.84
2018-08-04T08:28:14.922Z,38.09
2018-08-04T08:29:14.911Z,38.20
2018-08-04T08:30:14.891Z,37.93
2018-08-04T08:31:14.885Z,37.12
2018-08-04T08:32:14.856Z,37.06
2018-08-04T08:33:14.866Z,37.07
2018-08-04T08:34:14.814Z,36.80
2018-08-04T08:35:14.805Z,36.15
2018-08-04T08:36:14.794Z,35.93
2018-08-04T08:37:14.789Z,35.75
2018-08-04T08:38:14.777Z,35.80
2018-08-04T08:39:14.732Z,36.05
2018-08-04T08:40:14.738Z,35.78
2018-08-04T08:41:14.740Z,35.63
2018-08-04T08:42:14.695Z,35.63
2018-08-04T08:43:14.685Z,35.15
2018-08-04T08:44:14.672Z,35.41
2018-08-04T08:45:14.654Z,35.62
2018-08-04T08:46:14.642Z,35.92
2018-08-04T08:47:14.700Z,36.00
2018-08-04T08:48:14.601Z,36.05
2018-08-04T08:49:14.582Z,35.74
2018-08-04T08:50:14.571Z,35.38
2018-08-04T08:51:14.563Z,34.94
2018-08-04T08:52:14.544Z,34.69
2018-08-04T08:53:14.685Z,34.52
2018-08-04T08:54:14.592Z,33.90
2018-08-04T08:55:14.485Z,33.73
2018-08-04T08:56:14.504Z,33.61
2018-08-04T08:57:14.465Z,33.29
2018-08-04T08:58:14.444Z,33.09
2018-08-04T08:59:14.437Z,32.85
2018-08-04T09:00:14.417Z,33.39
2018-08-04T09:01:14.418Z,34.22
2018-08-04T09:02:14.427Z,34.78
2018-08-04T09:03:14.367Z,35.04
2018-08-04T09:04:14.360Z,35.56
2018-08-04T09:05:14.346Z,35.80
2018-08-04T09:06:14.335Z,36.08
2018-08-04T09:07:14.300Z,36.53
2018-08-04T09:08:14.287Z,36.71
2018-08-04T09:09:14.266Z,36.28
2018-08-04T09:10:14.259Z,36.15
2018-08-04T09:11:14.229Z,36.17
2018-08-04T09:12:14.235Z,35.48
2018-08-04T09:13:14.198Z,35.11
2018-08-04T09:14:14.206Z,35.18
2018-08-04T09:15:14.166Z,35.34
2018-08-04T09:16:14.165Z,35.99
2018-08-04T09:17:14.170Z,36.80
2018-08-04T09:18:14.139Z,37.49
2018-08-04T09:19:14.117Z,38.03
2018-08-04T09:20:14.093Z,38.40
2018-08-04T09:21:14.076Z,38.75
2018-08-04T09:22:14.065Z,39.23
2018-08-04T09:23:14.045Z,38.35
2018-08-04T09:24:14.060Z,38.18
2018-08-04T09:25:14.026Z,37.66
2018-08-04T09:26:14.000Z,37.22
2018-08-04T09:27:13.994Z,37.66
2018-08-04T09:28:13.991Z,37.85
2018-08-04T09:29:13.975Z,38.28
2018-08-04T09:30:13.929Z,38.65
2018-08-04T09:31:13.918Z,38.19
2018-08-04T09:32:13.921Z,38.07
2018-08-04T09:33:13.916Z,37.41
2018-08-04T09:34:13.873Z,37.09
2018-08-04T09:35:13.854Z,36.83
2018-08-04T09:36:13.842Z,36.99
2018-08-04T09:37:13.857Z,36.44
2018-08-04T09:38:13.902Z,36.68
2018-08-04T09:39:13.920Z,36.87
2018-08-04T09:40:13.834Z,36.66
2018-08-04T09:41:13.786Z,36.65
2018-08-04T09:42:13.798Z,36.53
2018-08-04T09:43:13.757Z,36.91
2018-08-04T09:44:13.742Z,37.34
2018-08-04T09:45:13.717Z,37.07
2018-08-04T09:46:13.762Z,37.20
2018-08-04T09:47:13.704Z,36.91
2018-08-04T09:48:13.693Z,36.98
2018-08-04T09:49:13.701Z,37.66
2018-08-04T09:50:13.654Z,37.98
2018-08-04T09:51:13.628Z,38.35
2018-08-04T09:52:13.664Z,37.94
2018-08-04T09:53:13.600Z,38.20
2018-08-04T09:54:13.615Z,37.55
2018-08-04T09:55:13.588Z,37.07
2018-08-04T09:56:13.578Z,37.22
2018-08-04T09:57:13.585Z,37.13
2018-08-04T09:58:13.548Z,37.66
2018-08-04T09:59:13.519Z,37.69
2018-08-04T10:00:13.520Z,37.44
2018-08-04T10:01:13.546Z,37.64
2018-08-04T10:02:13.482Z,37.43
2018-08-04T10:03:13.492Z,36.91
2018-08-04T10:04:13.477Z,36.13
2018-08-04T10:05:13.517Z,35.03
2018-08-04T10:06:13.439Z,34.08
2018-08-04T10:07:13.411Z,33.93
2018-08-04T10:08:13.406Z,33.73
2018-08-04T10:09:13.382Z,34.84
2018-08-04T10:10:13.377Z,35.65
2018-08-04T10:11:13.405Z,36.41
2018-08-04T10:12:13.351Z,36.62
2018-08-04T10:13:13.326Z,36.47
2018-08-04T10:14:13.316Z,36.27
2018-08-04T10:15:13.283Z,36.59
2018-08-04T10:16:13.272Z,36.76
2018-08-04T10:17:13.260Z,37.37
2018-08-04T10:18:13.238Z,38.07
2018-08-04T10:19:13.236Z,38.49
2018-08-04T10:20:13.240Z,38.34
2018-08-04T10:21:13.208Z,38.74
2018-08-04T10:22:13.207Z,38.76
2018-08-04T10:23:13.169Z,38.44
2018-08-04T10:24:13.172Z,38.46
2018-08-04T10:25:13.139Z,38.34
2018-08-04T10:26:13.252Z,37.97
2018-08-04T10:27:13.128Z,37.75
2018-08-04T10:28:13.118Z,37.34
2018-08-04T10:29:13.089Z,37.31
2018-08-04T10:30:13.090Z,35.78
2018-08-04T10:31:13.052Z,35.10
2018-08-04T10:32:13.197Z,35.28
2018-08-04T10:33:13.042Z,35.96
2018-08-04T10:34:13.022Z,36.00
2018-08-04T10:35:13.023Z,35.90
2018-08-04T10:36:13.004Z,36.08
2018-08-04T10:37:12.963Z,35.75
2018-08-04T10:38:12.945Z,36.03
2018-08-04T10:39:12.935Z,36.28
2018-08-04T10:40:12.916Z,36.98
2018-08-04T10:41:12.887Z,37.50
2018-08-04T10:42:12.889Z,37.98
2018-08-04T10:43:12.866Z,37.64
2018-08-04T10:44:12.872Z,37.55
2018-08-04T10:45:12.868Z,38.00
2018-08-04T10:46:12.827Z,38.42
2018-08-04T10:47:12.808Z,38.74
2018-08-04T10:48:12.874Z,38.93
2018-08-04T10:49:12.801Z,39.16
2018-08-04T10:50:12.753Z,38.47
2018-08-04T10:51:12.741Z,38.46
2018-08-04T10:52:12.729Z,38.37
2018-08-04T10:53:12.725Z,37.66
2018-08-04T10:54:12.784Z,37.57
2018-08-04T10:55:12.749Z,38.11
2018-08-04T10:56:12.710Z,38.19
2018-08-04T10:57:12.670Z,38.22
2018-08-04T10:58:12.668Z,38.20
2018-08-04T10:59:12.675Z,38.44
2018-08-04T11:00:12.685Z,38.42
2018-08-04T11:01:12.620Z,38.52
2018-08-04T11:02:12.617Z,38.69
2018-08-04T11:03:12.581Z,38.76
2018-08-04T11:04:12.540Z,38.86
2018-08-04T11:05:12.583Z,38.90
2018-08-04T11:06:12.524Z,39.18
2018-08-04T11:07:12.540Z,39.41
2018-08-04T11:08:12.481Z,39.45
2018-08-04T11:09:12.475Z,39.59
2018-08-04T11:10:12.459Z,39.66
2018-08-04T11:11:12.453Z,39.57
2018-08-04T11:12:12.472Z,39.09
2018-08-04T11:13:12.415Z,38.99
2018-08-04T11:14:12.386Z,38.49
2018-08-04T11:15:12.376Z,38.41
2018-08-04T11:16:12.366Z,38.37
2018-08-04T11:17:12.379Z,37.85
2018-08-04T11:18:12.373Z,38.04
2018-08-04T11:19:12.317Z,37.89
2018-08-04T11:20:12.321Z,37.62
2018-08-04T11:21:12.310Z,36.71
2018-08-04T11:22:12.294Z,36.59
2018-08-04T11:23:12.285Z,35.85
2018-08-04T11:24:12.314Z,34.89
2018-08-04T11:25:12.254Z,34.16
2018-08-04T11:26:12.236Z,33.86
2018-08-04T11:27:12.412Z,33.75
2018-08-04T11:28:12.353Z,33.56
2018-08-04T11:29:12.198Z,33.38
2018-08-04T11:30:12.157Z,33.16
2018-08-04T11:31:12.143Z,32.87
2018-08-04T11:32:12.205Z,32.88
2018-08-04T11:33:12.178Z,32.85
2018-08-04T11:34:12.111Z,32.81
2018-08-04T11:35:12.101Z,33.60
2018-08-04T11:36:12.155Z,34.32
2018-08-04T11:37:12.099Z,35.03
2018-08-04T11:38:12.092Z,35.40
2018-08-04T11:39:12.012Z,35.65
2018-08-04T11:40:12.037Z,35.77
2018-08-04T11:41:12.007Z,36.09
2018-08-04T11:42:11.978Z,36.54
2018-08-04T11:43:11.942Z,36.91
2018-08-04T11:44:11.939Z,37.09
2018-08-04T11:45:11.916Z,36.98
2018-08-04T11:46:11.887Z,37.25
2018-08-04T11:47:11.877Z,37.49
2018-08-04T11:48:11.862Z,37.39
2018-08-04T11:49:11.871Z,37.72
2018-08-04T11:50:11.822Z,37.50
2018-08-04T11:51:11.813Z,37.78
2018-08-04T11:52:11.886Z,37.96
2018-08-04T11:53:11.788Z,37.43
2018-08-04T11:54:11.778Z,37.64
2018-08-04T11:55:11.767Z,37.50
2018-08-04T11:56:11.729Z,37.02
2018-08-04T11:57:11.725Z,36.88
2018-08-04T11:58:11.711Z,36.83
2018-08-04T11:59:11.685Z,36.41
2018-08-04T12:00:11.674Z,36.60
2018-08-04T12:01:11.653Z,36.32
2018-08-04T12:02:11.637Z,35.96
2018-08-04T12:03:11.662Z,36.20
2018-08-04T12:04:11.647Z,36.41
2018-08-04T12:05:11.757Z,36.50
2018-08-04T12:06:11.622Z,36.32
2018-08-04T12:07:11.584Z,35.92
2018-08-04T12:08:11.571Z,36.19
2018-08-04T12:09:11.591Z,36.34
2018-08-04T12:10:11.505Z,36.75
2018-08-04T12:11:11.552Z,36.65
2018-08-04T12:12:11.521Z,36.65
2018-08-04T12:13:11.512Z,36.60
2018-08-04T12:14:11.455Z,36.59
2018-08-04T12:15:11.485Z,36.76
2018-08-04T12:16:11.454Z,36.98
2018-08-04T12:17:11.405Z,36.91
2018-08-04T12:18:11.409Z,37.00
2018-08-04T12:19:11.409Z,36.83
2018-08-04T12:20:11.345Z,36.54
2018-08-04T12:21:11.325Z,36.13
2018-08-04T12:22:11.318Z,36.03
2018-08-04T12:23:11.294Z,36.34
2018-08-04T12:24:11.297Z,36.35
2018-08-04T12:25:11.277Z,36.41
2018-08-04T12:26:11.248Z,36.43
2018-08-04T12:27:11.245Z,36.41
2018-08-04T12:28:11.230Z,36.27
2018-08-04T12:29:11.209Z,35.93
2018-08-04T12:30:11.172Z,35.82
2018-08-04T12:31:11.180Z,35.52
2018-08-04T12:32:11.160Z,35.33
2018-08-04T12:33:11.170Z,35.53
2018-08-04T12:34:11.129Z,35.50
2018-08-04T12:35:11.114Z,35.63
2018-08-04T12:36:11.076Z,35.89
2018-08-04T12:37:11.060Z,36.15
2018-08-04T12:38:11.063Z,36.03
2018-08-04T12:39:11.050Z,35.82
2018-08-04T12:40:11.019Z,36.09
2018-08-04T12:41:10.995Z,35.97
2018-08-04T12:42:10.986Z,36.00
2018-08-04T12:43:10.972Z,36.29
2018-08-04T12:44:10.949Z,36.34
2018-08-04T12:45:10.935Z,36.20
2018-08-04T12:46:10.921Z,36.13
2018-08-04T12:47:10.944Z,36.22
2018-08-04T12:48:10.926Z,36.35
2018-08-04T12:49:10.871Z,36.05
2018-08-04T12:50:10.889Z,36.05
2018-08-04T12:51:10.849Z,36.16
2018-08-04T12:52:10.820Z,36.31